Time;durP1;ratioP1;P1;durP2;ratioP2;P2;SDS_P1;SDS_P2;PMS_P1;PMS_P2;Temp;Humidity;BMP_temperature;BMP_pressure;BME280_temperature;BME280_humidity;BME280_pressure;Samples;Min_cycle;Max_cycle;Signal;HPM_P1;HPM_P2
2022/02/13 00:01:36;;;;;;;5.93;3.13;;;-8.70;96.20;;;;;;5031885;28;20021;-66
2022/02/13 00:04:02;;;;;;;4.03;2.55;;;-8.80;96.10;;;;;;5031761;28;20025;-66
2022/02/13 00:06:28;;;;;;;6.97;3.25;;;-8.80;96.70;;;;;;5032076;28;20025;-65
2022/02/13 00:08:54;;;;;;;8.48;2.78;;;-8.90;97.10;;;;;;5031767;28;20038;-65
2022/02/13 00:11:20;;;;;;;4.88;2.75;;;-8.90;96.60;;;;;;5031719;28;20029;-66
2022/02/13 00:13:47;;;;;;;15.75;2.85;;;-9.00;96.00;;;;;;5031865;28;20083;-66
2022/02/13 00:16:13;;;;;;;9.77;2.85;;;-9.00;95.90;;;;;;5031774;28;20021;-66
2022/02/13 00:18:38;;;;;;;5.65;3.30;;;-9.00;96.10;;;;;;5031760;28;20029;-66
2022/02/13 00:21:04;;;;;;;7.70;3.03;;;-9.00;96.80;;;;;;5015231;28;20028;-65
2022/02/13 00:23:30;;;;;;;15.65;3.28;;;-9.00;96.80;;;;;;5035748;28;20464;-65
2022/02/13 00:25:56;;;;;;;10.77;3.03;;;-9.10;96.60;;;;;;5035800;28;20044;-65
2022/02/13 00:28:21;;;;;;;6.82;2.90;;;-9.10;96.60;;;;;;5035617;28;20420;-66
2022/02/13 00:30:47;;;;;;;7.55;3.05;;;-9.10;97.00;;;;;;5035593;28;20037;-65
2022/02/13 00:33:14;;;;;;;7.97;2.63;;;-9.10;97.20;;;;;;5035563;28;20020;-65
2022/02/13 00:35:41;;;;;;;12.40;3.35;;;-9.10;96.40;;;;;;5035621;28;20026;-65
2022/02/13 00:38:08;;;;;;;7.38;2.92;;;-9.20;96.10;;;;;;5035178;28;20053;-66
2022/02/13 00:40:34;;;;;;;9.18;2.78;;;-9.20;96.30;;;;;;5035650;28;20021;-67
2022/02/13 00:43:00;;;;;;;6.55;3.25;;;-9.20;96.70;;;;;;5035384;28;20028;-66
2022/02/13 00:45:25;;;;;;;6.80;2.88;;;-9.20;96.60;;;;;;5035460;28;20397;-66
2022/02/13 00:47:51;;;;;;;13.10;3.60;;;-9.20;96.60;;;;;;5035259;28;20027;-66
2022/02/13 00:50:17;;;;;;;11.70;3.10;;;-9.20;96.90;;;;;;5035099;28;20110;-66
2022/02/13 00:52:42;;;;;;;10.27;3.50;;;-9.20;97.00;;;;;;5017394;28;20029;-66
2022/02/13 00:55:09;;;;;;;8.77;4.03;;;-9.20;97.20;;;;;;5035055;28;20026;-66
2022/02/13 00:57:34;;;;;;;10.43;3.05;;;-9.20;97.30;;;;;;5035140;28;20056;-66
2022/02/13 01:00:00;;;;;;;7.93;2.90;;;-9.20;97.00;;;;;;5035034;28;20465;-66
2022/02/13 01:02:26;;;;;;;6.32;2.65;;;-9.20;97.10;;;;;;5035007;28;20030;-66
2022/02/13 01:04:51;;;;;;;8.73;3.08;;;-9.20;97.50;;;;;;5034964;28;20126;-66
2022/02/13 01:07:17;;;;;;;4.47;3.17;;;-9.30;97.10;;;;;;5034815;28;20029;-66
2022/02/13 01:09:43;;;;;;;6.88;3.35;;;-9.30;97.30;;;;;;5034862;28;20033;-67
2022/02/13 01:12:09;;;;;;;5.63;3.42;;;-9.40;97.00;;;;;;5034906;28;20025;-66
2022/02/13 01:14:35;;;;;;;10.80;3.30;;;-9.40;98.00;;;;;;5034931;28;20105;-66
2022/02/13 01:17:01;;;;;;;4.20;2.78;;;-9.40;98.60;;;;;;5034567;28;20699;-66
2022/02/13 01:19:29;;;;;;;7.88;2.85;;;-9.40;98.60;;;;;;5034958;28;20028;-66
2022/02/13 01:21:55;;;;;;;7.05;2.88;;;-9.40;98.90;;;;;;5034525;28;20380;-66
2022/02/13 01:24:21;;;;;;;7.13;3.85;;;-9.40;99.80;;;;;;5034745;28;20029;-66
2022/02/13 01:26:46;;;;;;;9.68;5.13;;;-9.40;99.90;;;;;;5034561;28;20366;-66
2022/02/13 01:29:12;;;;;;;13.07;8.18;;;-9.40;99.90;;;;;;5034253;28;20112;-66
2022/02/13 01:31:39;;;;;;;12.85;5.68;;;-9.50;99.90;;;;;;5034686;28;20041;-67
2022/02/13 01:34:05;;;;;;;9.70;3.28;;;-9.50;99.90;;;;;;5033342;28;20021;-66
2022/02/13 01:36:32;;;;;;;6.82;3.15;;;-9.50;99.90;;;;;;5034288;28;20033;-66
2022/02/13 01:38:58;;;;;;;10.48;3.50;;;-9.60;99.90;;;;;;5034227;28;20041;-66
2022/02/13 01:41:24;;;;;;;11.55;5.70;;;-9.50;99.90;;;;;;5034318;28;20079;-66
2022/02/13 01:43:50;;;;;;;11.35;6.00;;;-9.40;99.90;;;;;;5034237;28;20018;-66
2022/02/13 01:46:16;;;;;;;8.43;4.60;;;-9.40;99.90;;;;;;5034116;28;20028;-65
2022/02/13 01:48:42;;;;;;;8.15;3.03;;;-9.40;99.90;;;;;;5034013;28;20045;-66
2022/02/13 01:51:08;;;;;;;6.03;3.20;;;-9.40;99.90;;;;;;5034097;28;20064;-66
2022/02/13 01:53:34;;;;;;;8.57;2.70;;;-9.30;99.90;;;;;;5033995;28;20032;-66
2022/02/13 01:56:02;;;;;;;10.50;2.85;;;-9.30;99.90;;;;;;5033933;28;20108;-66
2022/02/13 01:58:28;;;;;;;3.70;2.63;;;-9.30;99.90;;;;;;5034032;28;20488;-66
2022/02/13 02:00:54;;;;;;;2.60;1.95;;;-9.20;99.90;;;;;;5034363;28;20029;-64
2022/02/13 02:03:20;;;;;;;3.13;1.70;;;-9.20;99.90;;;;;;5033834;28;20025;-70
2022/02/13 02:05:46;;;;;;;2.35;1.60;;;-9.20;99.90;;;;;;5034030;28;20052;-70
2022/02/13 02:08:12;;;;;;;3.20;1.60;;;-9.10;99.90;;;;;;5033737;28;20111;-69
2022/02/13 02:10:38;;;;;;;3.47;2.10;;;-9.10;99.90;;;;;;5034108;28;20038;-70
2022/02/13 02:13:04;;;;;;;3.13;1.90;;;-9.10;99.90;;;;;;5033609;28;20022;-70
2022/02/13 02:15:30;;;;;;;3.33;1.75;;;-9.00;99.90;;;;;;5033746;28;20079;-70
2022/02/13 02:17:55;;;;;;;2.45;1.58;;;-9.00;99.90;;;;;;5033569;28;20029;-70
2022/02/13 02:20:21;;;;;;;2.55;1.60;;;-9.00;99.90;;;;;;5015830;28;20116;-70
2022/02/13 02:22:57;;;;;;;5.93;1.80;;;-9.00;99.90;;;;;;5033714;28;20083;-70
2022/02/13 02:54:27;;;;;;;3.50;1.90;;;-8.60;99.90;;;;;;5032124;28;20068;-69
2022/02/13 02:56:52;;;;;;;3.90;1.40;;;-8.60;99.90;;;;;;5032817;28;20018;-69
2022/02/13 02:59:18;;;;;;;2.88;1.80;;;-8.60;99.90;;;;;;5032901;28;20120;-69
2022/02/13 03:01:45;;;;;;;3.03;1.60;;;-8.60;99.90;;;;;;5032800;28;20393;-69
2022/02/13 03:37:50;;;;;;;5.50;1.38;;;-8.20;99.90;;;;;;5439126;22;20116;-71
2022/02/13 03:40:17;;;;;;;3.75;2.10;;;-8.20;99.90;;;;;;5012164;28;20026;-71
2022/02/13 03:42:43;;;;;;;5.15;1.83;;;-8.10;99.90;;;;;;5012383;28;20041;-71
2022/02/13 03:45:09;;;;;;;4.95;1.67;;;-8.20;99.90;;;;;;5012318;28;20505;-71
2022/02/13 03:47:35;;;;;;;2.67;1.50;;;-8.10;99.90;;;;;;5012286;28;20014;-71
2022/02/13 03:50:02;;;;;;;9.50;1.83;;;-8.10;99.90;;;;;;5012117;28;20499;-71
2022/02/13 03:52:28;;;;;;;3.97;1.73;;;-8.10;99.90;;;;;;5011208;28;20032;-71
2022/02/13 03:54:54;;;;;;;3.13;1.50;;;-8.10;99.90;;;;;;5012394;28;20022;-70
2022/02/13 03:57:19;;;;;;;5.53;1.40;;;-8.10;99.90;;;;;;5011678;28;20072;-70
2022/02/13 03:59:45;;;;;;;4.95;2.00;;;-8.10;99.90;;;;;;5013740;28;20041;-70
2022/02/13 04:02:11;;;;;;;5.95;1.60;;;-8.00;99.90;;;;;;5016165;28;20076;-70
2022/02/13 04:04:36;;;;;;;3.72;1.67;;;-8.00;99.90;;;;;;5012151;28;20022;-69
2022/02/13 04:07:02;;;;;;;3.15;1.30;;;-7.90;99.90;;;;;;5011901;28;20492;-70
2022/02/13 04:09:28;;;;;;;3.47;1.77;;;-7.90;99.90;;;;;;5012307;28;20077;-71
2022/02/13 04:11:54;;;;;;;5.07;1.67;;;-7.90;99.90;;;;;;5012095;28;20037;-70
2022/02/13 04:14:19;;;;;;;7.43;1.90;;;-7.80;99.90;;;;;;5012044;28;20662;-70
2022/02/13 04:16:45;;;;;;;4.57;1.52;;;-7.70;99.90;;;;;;5012236;28;20073;-70
2022/02/13 04:19:10;;;;;;;2.22;1.60;;;-7.70;99.90;;;;;;5011861;28;20033;-71
2022/02/13 04:21:36;;;;;;;4.40;1.92;;;-7.70;99.90;;;;;;5012152;28;20080;-71
2022/02/13 04:24:02;;;;;;;3.25;1.73;;;-7.70;99.90;;;;;;5011839;28;20381;-71
2022/02/13 04:26:28;;;;;;;8.23;2.63;;;-7.70;99.90;;;;;;4994825;28;20022;-71
2022/02/13 04:28:53;;;;;;;3.85;1.77;;;-7.70;99.90;;;;;;5011926;28;20033;-71
2022/02/13 04:31:19;;;;;;;2.38;1.80;;;-7.60;99.90;;;;;;5012135;28;20065;-71
2022/02/13 04:33:45;;;;;;;3.90;2.00;;;-7.60;99.90;;;;;;5011905;28;20129;-71
2022/02/13 04:36:11;;;;;;;5.70;2.03;;;-7.60;99.90;;;;;;4994288;28;20056;-71
2022/02/13 04:38:36;;;;;;;5.65;1.85;;;-7.60;99.90;;;;;;5011556;28;20054;-71
2022/02/13 04:41:02;;;;;;;4.05;2.05;;;-7.50;99.90;;;;;;5011746;28;20018;-71
2022/02/13 04:43:28;;;;;;;3.25;1.60;;;-7.50;99.90;;;;;;5011825;28;20536;-71
2022/02/13 04:45:54;;;;;;;4.72;1.50;;;-7.50;99.90;;;;;;5011830;28;20026;-71
2022/02/13 04:48:20;;;;;;;3.38;1.73;;;-7.50;99.90;;;;;;5011865;28;20487;-70
2022/02/13 04:50:45;;;;;;;5.22;2.00;;;-7.50;99.90;;;;;;5011760;28;20101;-70
2022/02/13 04:53:11;;;;;;;3.55;1.83;;;-7.50;99.90;;;;;;5011458;28;20160;-70
2022/02/13 04:55:37;;;;;;;2.92;1.58;;;-7.50;99.90;;;;;;5011809;28;20030;-71
2022/02/13 04:58:04;;;;;;;4.80;1.85;;;-7.50;99.90;;;;;;5011482;28;20354;-70
2022/02/13 05:00:30;;;;;;;5.13;1.83;;;-7.50;99.90;;;;;;5011584;28;20022;-70
2022/02/13 05:02:55;;;;;;;4.63;1.63;;;-7.40;99.90;;;;;;5011549;28;20100;-70
2022/02/13 05:05:21;;;;;;;2.97;1.60;;;-7.40;99.90;;;;;;5011740;28;20050;-70
2022/02/13 05:07:47;;;;;;;4.28;1.90;;;-7.40;99.90;;;;;;5012352;28;20030;-70
2022/02/13 05:10:13;;;;;;;8.57;2.55;;;-7.40;99.90;;;;;;5014977;28;20088;-70
2022/02/13 05:12:39;;;;;;;7.45;3.47;;;-7.30;99.90;;;;;;5015084;28;20097;-70
2022/02/13 05:15:06;;;;;;;9.35;2.65;;;-7.30;99.90;;;;;;5014912;28;20513;-70
2022/02/13 05:17:36;;;;;;;4.95;1.95;;;-7.20;99.90;;;;;;5014890;28;20519;-71
2022/02/13 05:20:06;;;;;;;3.83;1.70;;;-7.20;99.90;;;;;;5014777;28;20030;-71
2022/02/13 05:22:31;;;;;;;2.65;1.75;;;-7.10;99.90;;;;;;5014915;28;20484;-71
2022/02/13 05:24:57;;;;;;;5.97;1.70;;;-7.10;99.90;;;;;;5015009;28;20072;-71
2022/02/13 05:27:23;;;;;;;2.78;1.52;;;-7.00;99.90;;;;;;5014988;28;20084;-71
2022/02/13 05:29:48;;;;;;;6.55;1.77;;;-7.00;99.90;;;;;;5014794;28;20518;-71
2022/02/13 05:32:14;;;;;;;3.15;1.80;;;-7.00;99.90;;;;;;5014633;28;20018;-68
2022/02/13 05:34:40;;;;;;;1.80;1.50;;;-6.90;99.90;;;;;;5014761;28;20026;-68
2022/02/13 05:37:07;;;;;;;4.13;1.60;;;-6.90;99.90;;;;;;5014405;28;20132;-64
2022/02/13 05:39:33;;;;;;;3.80;1.45;;;-6.90;99.90;;;;;;5014666;28;20026;-66
2022/02/13 05:41:59;;;;;;;1.98;1.55;;;-6.20;99.90;;;;;;5032749;28;20492;-67
2022/02/13 05:44:25;;;;;;;3.17;2.42;;;-5.60;99.90;;;;;;5033668;28;20069;-67
2022/02/13 05:46:51;;;;;;;6.63;1.92;;;-5.80;99.90;;;;;;5033514;28;20017;-69
2022/02/13 05:49:17;;;;;;;5.70;1.70;;;-6.00;99.90;;;;;;5030408;28;20048;-70
2022/02/13 05:51:43;;;;;;;1.90;1.58;;;-6.20;99.90;;;;;;5020436;28;20018;-69
2022/02/13 05:54:09;;;;;;;4.72;1.73;;;-6.30;99.90;;;;;;5014274;28;20029;-69
2022/02/13 05:56:35;;;;;;;11.23;1.85;;;-6.40;99.90;;;;;;5024029;28;20515;-69
2022/02/13 05:59:01;;;;;;;2.28;1.45;;;-6.40;99.90;;;;;;5030627;28;20021;-65
2022/02/13 06:01:27;;;;;;;3.17;1.55;;;-6.50;99.90;;;;;;5030859;28;20036;-66
2022/02/13 06:03:53;;;;;;;4.68;1.83;;;-6.50;99.90;;;;;;5033313;28;20025;-66
2022/02/13 06:06:19;;;;;;;3.63;1.65;;;-6.50;99.90;;;;;;5030740;28;20029;-69
2022/02/13 06:08:45;;;;;;;2.22;1.90;;;-6.50;99.90;;;;;;5030595;28;20037;-66
2022/02/13 06:11:12;;;;;;;2.22;1.63;;;-6.40;99.90;;;;;;5033649;28;20040;-66
2022/02/13 06:13:38;;;;;;;3.05;1.73;;;-6.50;99.90;;;;;;5034061;28;20384;-66
2022/02/13 06:16:06;;;;;;;4.32;1.58;;;-6.50;99.90;;;;;;5033750;28;20045;-66
2022/02/13 06:18:34;;;;;;;4.47;1.73;;;-6.50;99.90;;;;;;5015529;28;20036;-66
2022/02/13 06:21:00;;;;;;;5.88;2.50;;;-6.40;99.90;;;;;;5033708;28;20026;-64
2022/02/13 06:23:26;;;;;;;7.75;2.17;;;-6.40;99.90;;;;;;5033829;28;20030;-67
2022/02/13 06:25:52;;;;;;;10.75;2.03;;;-6.40;99.90;;;;;;5033646;28;20487;-66
2022/02/13 06:28:18;;;;;;;4.45;1.50;;;-6.20;99.90;;;;;;5033296;28;20026;-66
2022/02/13 06:30:43;;;;;;;5.95;2.08;;;-6.00;99.90;;;;;;5033377;28;20102;-66
2022/02/13 06:33:10;;;;;;;2.88;1.65;;;-6.00;99.90;;;;;;5033142;28;20052;-65
2022/02/13 06:35:35;;;;;;;5.28;1.80;;;-6.10;99.90;;;;;;5033382;28;20104;-66
2022/02/13 06:38:01;;;;;;;2.60;1.70;;;-6.20;99.90;;;;;;5033021;28;20137;-65
2022/02/13 06:40:28;;;;;;;3.17;1.52;;;-6.10;99.90;;;;;;5033167;28;20025;-65
2022/02/13 06:42:53;;;;;;;5.63;1.98;;;-6.10;99.90;;;;;;5033432;28;20112;-65
2022/02/13 06:45:19;;;;;;;3.40;2.03;;;-6.10;99.90;;;;;;5032973;28;20556;-65
2022/02/13 06:47:45;;;;;;;4.72;1.60;;;-6.10;99.90;;;;;;5033039;28;20030;-66
2022/02/13 06:50:13;;;;;;;3.65;1.70;;;-6.10;99.90;;;;;;5032658;28;20037;-65
2022/02/13 06:52:39;;;;;;;4.05;1.83;;;-6.10;99.90;;;;;;5032614;28;20029;-65
2022/02/13 06:55:05;;;;;;;2.78;2.03;;;-6.10;99.90;;;;;;5032907;28;20476;-66
2022/02/13 06:57:31;;;;;;;4.43;2.65;;;-6.10;99.90;;;;;;5032839;28;20380;-66
2022/02/13 06:59:57;;;;;;;5.40;2.38;;;-6.00;99.90;;;;;;5032820;28;20025;-66
2022/02/13 07:02:23;;;;;;;7.65;1.85;;;-6.00;99.90;;;;;;5032917;28;20107;-66
2022/02/13 07:04:48;;;;;;;2.30;1.80;;;-3.80;99.90;;;;;;5032641;28;20412;-65
2022/02/13 07:07:14;;;;;;;8.35;3.10;;;-2.40;99.90;;;;;;5032602;28;20473;-64
2022/02/13 07:09:40;;;;;;;4.93;2.30;;;-3.00;99.90;;;;;;5032800;28;20489;-64
2022/02/13 07:12:09;;;;;;;3.50;1.73;;;-3.80;99.90;;;;;;5030126;28;20034;-63
2022/02/13 07:14:39;;;;;;;41.45;14.80;;;-4.30;99.90;;;;;;5029231;28;20032;-65
2022/02/13 07:17:05;;;;;;;6.32;3.70;;;-4.60;99.90;;;;;;5036162;28;20369;-71
2022/02/13 07:19:32;;;;;;;6.40;2.58;;;-4.80;99.90;;;;;;5032877;28;20116;-68
2022/02/13 07:21:58;;;;;;;6.10;2.58;;;-5.00;99.90;;;;;;5037432;28;20024;-66
2022/02/13 07:24:24;;;;;;;6.60;2.28;;;-5.10;99.90;;;;;;5031812;28;20084;-67
2022/02/13 07:26:50;;;;;;;6.72;2.13;;;-5.20;99.90;;;;;;5014425;28;20087;-67
2022/02/13 07:29:15;;;;;;;5.95;2.35;;;-5.20;99.90;;;;;;5031985;28;20602;-67
2022/02/13 07:31:41;;;;;;;8.18;2.65;;;-5.20;99.90;;;;;;5031756;28;20029;-69
2022/02/13 07:34:07;;;;;;;6.22;2.25;;;-5.20;99.90;;;;;;5032400;28;20025;-66
2022/02/13 07:36:34;;;;;;;7.50;2.70;;;-4.00;99.90;;;;;;5031775;28;20057;-66
2022/02/13 07:39:00;;;;;;;6.82;2.67;;;-3.90;99.90;;;;;;5017402;28;20060;-67
2022/02/13 07:41:27;;;;;;;5.82;2.67;;;-4.10;99.90;;;;;;5012135;28;20535;-67
2022/02/13 07:43:53;;;;;;;4.07;2.30;;;-4.30;99.90;;;;;;5018359;28;20064;-67
2022/02/13 07:46:20;;;;;;;5.70;2.42;;;-4.50;99.90;;;;;;5023218;28;20158;-70
2022/02/13 07:48:46;;;;;;;8.55;2.50;;;-4.70;99.90;;;;;;4997419;28;20034;-68
2022/02/13 07:51:14;;;;;;;6.85;2.25;;;-4.80;99.90;;;;;;5022702;28;20041;-67
2022/02/13 07:53:41;;;;;;;4.93;2.25;;;-4.80;99.90;;;;;;5029619;28;20022;-68
2022/02/13 07:56:08;;;;;;;5.85;2.50;;;-4.90;99.90;;;;;;5028322;28;20057;-68
2022/02/13 07:58:35;;;;;;;7.22;2.35;;;-4.90;99.90;;;;;;5031306;28;20096;-69
2022/02/13 08:01:03;;;;;;;5.65;2.53;;;-4.90;99.90;;;;;;5029474;28;20087;-66
2022/02/13 08:03:28;;;;;;;10.52;2.47;;;-4.90;99.90;;;;;;5030416;28;20017;-68
2022/02/13 08:05:54;;;;;;;7.25;2.85;;;-4.90;99.90;;;;;;5021338;28;20029;-67
2022/02/13 08:08:20;;;;;;;7.60;2.58;;;-4.90;99.90;;;;;;5013297;28;20504;-67
2022/02/13 08:10:46;;;;;;;7.00;2.95;;;-4.90;99.90;;;;;;5031209;28;20050;-67
2022/02/13 08:13:16;;;;;;;6.95;2.78;;;-4.90;99.90;;;;;;5012328;28;20064;-68
2022/02/13 08:15:43;;;;;;;3.80;2.17;;;-4.80;99.90;;;;;;5011667;28;20014;-67
2022/02/13 08:18:11;;;;;;;6.55;2.45;;;-4.30;99.90;;;;;;5011759;28;20030;-69
2022/02/13 08:20:37;;;;;;;6.15;2.63;;;-2.40;99.90;;;;;;5031018;28;20025;-70
2022/02/13 08:23:04;;;;;;;8.10;2.95;;;-2.20;99.90;;;;;;5028668;28;20481;-70
2022/02/13 08:25:30;;;;;;;7.43;2.75;;;-2.70;99.90;;;;;;5011467;28;20024;-68
2022/02/13 08:27:56;;;;;;;9.50;3.03;;;-3.10;99.90;;;;;;5021009;28;20025;-68
2022/02/13 08:30:22;;;;;;;8.02;3.30;;;-3.40;99.90;;;;;;5028222;28;20029;-68
2022/02/13 08:32:48;;;;;;;6.93;3.42;;;-3.60;99.90;;;;;;5030900;28;20036;-67
2022/02/13 08:35:14;;;;;;;5.13;3.08;;;-3.80;99.90;;;;;;5030865;28;20026;-68
2022/02/13 08:37:40;;;;;;;8.27;2.92;;;-3.80;99.90;;;;;;5030809;28;20049;-70
2022/02/13 08:40:07;;;;;;;8.68;3.00;;;-3.90;99.90;;;;;;5028265;28;20037;-70
2022/02/13 08:42:33;;;;;;;5.15;2.88;;;-4.00;99.90;;;;;;5021097;28;20033;-70
2022/02/13 08:44:58;;;;;;;9.27;3.20;;;-4.00;99.90;;;;;;5033309;28;20018;-69
2022/02/13 08:47:24;;;;;;;10.50;3.50;;;-4.10;99.90;;;;;;5034540;28;20013;-70
2022/02/13 08:49:50;;;;;;;16.58;5.90;;;-4.10;99.90;;;;;;5034694;28;20044;-70
2022/02/13 08:52:17;;;;;;;23.33;6.72;;;-4.10;99.90;;;;;;5025100;28;20469;-69
2022/02/13 08:54:43;;;;;;;11.02;4.05;;;-4.20;99.90;;;;;;5022756;28;20032;-69
2022/02/13 08:57:10;;;;;;;12.63;4.13;;;-4.20;99.90;;;;;;5017705;28;20018;-69
2022/02/13 08:59:35;;;;;;;5.90;3.10;;;-4.10;99.90;;;;;;5015024;28;20029;-68
2022/02/13 09:02:01;;;;;;;10.45;3.85;;;-4.10;99.90;;;;;;5030824;28;20104;-69
2022/02/13 09:04:27;;;;;;;9.60;3.55;;;-4.10;99.90;;;;;;5034116;28;20029;-69
2022/02/13 09:06:54;;;;;;;13.82;3.28;;;-4.10;99.90;;;;;;5025530;28;20030;-68
2022/02/13 09:09:20;;;;;;;8.80;3.40;;;-4.00;99.90;;;;;;5014744;28;20049;-70
2022/02/13 09:11:46;;;;;;;7.78;3.40;;;-4.00;99.90;;;;;;5031032;28;20108;-68
2022/02/13 09:14:12;;;;;;;10.02;3.72;;;-4.00;99.90;;;;;;5016350;28;20121;-67
2022/02/13 09:16:38;;;;;;;8.60;3.15;;;-3.90;99.90;;;;;;5034420;28;20022;-67
2022/02/13 09:19:05;;;;;;;6.20;3.28;;;-3.90;99.90;;;;;;5034524;28;20017;-67
2022/02/13 09:21:31;;;;;;;8.50;3.47;;;-3.90;99.90;;;;;;5034184;28;20025;-67
2022/02/13 09:23:57;;;;;;;8.88;3.28;;;-3.80;99.90;;;;;;5027295;28;20018;-68
2022/02/13 09:26:23;;;;;;;6.28;2.97;;;-3.80;99.90;;;;;;5014383;28;20022;-69
2022/02/13 09:28:49;;;;;;;7.38;3.45;;;-3.70;99.90;;;;;;5020290;28;20030;-69
2022/02/13 09:31:15;;;;;;;6.45;2.72;;;-3.70;99.90;;;;;;5033809;28;20516;-69
2022/02/13 09:33:41;;;;;;;9.30;3.63;;;-3.70;99.90;;;;;;5031272;28;20022;-68
2022/02/13 09:36:07;;;;;;;7.88;3.70;;;-3.60;99.90;;;;;;5028428;28;20057;-68
2022/02/13 09:38:33;;;;;;;9.27;4.03;;;-3.60;99.90;;;;;;5030231;28;20550;-68
2022/02/13 09:41:00;;;;;;;4.55;3.40;;;-3.50;99.90;;;;;;5025208;28;20021;-68
2022/02/13 09:43:26;;;;;;;7.60;3.78;;;-3.50;99.90;;;;;;5025109;28;20060;-68
2022/02/13 09:45:52;;;;;;;11.90;4.35;;;-3.50;99.90;;;;;;5031475;28;20045;-67
2022/02/13 09:48:25;;;;;;;9.80;4.55;;;-3.50;99.90;;;;;;5033821;28;20064;-68
2022/02/13 09:50:51;;;;;;;9.15;3.78;;;-3.50;99.90;;;;;;5033581;28;20482;-69
2022/02/13 09:53:17;;;;;;;6.93;3.60;;;-3.40;99.90;;;;;;5032991;28;20032;-69
2022/02/13 09:55:44;;;;;;;11.30;3.67;;;-3.40;99.90;;;;;;5033626;28;20028;-69
2022/02/13 09:58:10;;;;;;;10.98;3.78;;;-3.30;99.90;;;;;;5033471;28;20109;-67
2022/02/13 10:01:11;;;;;;;7.05;3.50;;;-3.20;99.90;;;;;;5032083;28;20018;-69
2022/02/13 10:03:45;;;;;;;6.15;3.30;;;-2.20;99.90;;;;;;5000504;28;20017;-68
2022/02/13 10:06:11;;;;;;;12.07;4.50;;;-2.10;99.90;;;;;;5032809;28;20021;-68
2022/02/13 10:08:48;;;;;;;26.73;10.60;;;-2.30;99.90;;;;;;5013931;28;20080;-69
2022/02/13 10:11:29;;;;;;;16.17;5.50;;;-2.40;99.90;;;;;;5013758;28;20469;-69
2022/02/13 10:13:55;;;;;;;19.17;8.30;;;-2.50;99.90;;;;;;5031074;28;20041;-70
2022/02/13 10:16:49;;;;;;;14.93;6.45;;;-2.60;99.90;;;;;;5015332;28;20061;-69
2022/02/13 10:19:26;;;;;;;12.68;5.47;;;-2.60;99.90;;;;;;5032856;28;20021;-69
2022/02/13 10:21:54;;;;;;;32.47;12.27;;;-2.50;99.90;;;;;;5033022;28;20036;-69
2022/02/13 10:24:30;;;;;;;17.33;8.27;;;-2.40;99.90;;;;;;5032750;28;20025;-69
2022/02/13 10:27:10;;;;;;;12.55;6.80;;;-2.40;99.90;;;;;;5032885;28;20076;-69
2022/02/13 10:29:41;;;;;;;16.48;7.68;;;-2.40;99.90;;;;;;5032252;28;20029;-70
2022/02/13 10:32:20;;;;;;;13.13;6.85;;;-2.50;99.90;;;;;;5014566;28;20484;-69
2022/02/13 10:35:16;;;;;;;18.58;6.60;;;-2.40;99.90;;;;;;5032317;28;20033;-70
2022/02/13 10:37:52;;;;;;;15.20;6.57;;;-2.40;99.90;;;;;;5006637;28;20029;-69
2022/02/13 10:40:29;;;;;;;14.40;6.45;;;-2.40;99.90;;;;;;5018508;28;20037;-69
2022/02/13 10:43:09;;;;;;;12.68;6.45;;;-2.40;99.90;;;;;;5023845;28;20448;-69
2022/02/13 10:45:37;;;;;;;13.75;6.43;;;-2.30;99.90;;;;;;5023882;28;20034;-70
2022/02/13 10:48:05;;;;;;;15.73;6.85;;;-2.30;99.90;;;;;;5002879;28;20034;-70
2022/02/13 10:50:35;;;;;;;12.77;6.38;;;-2.30;99.90;;;;;;5005839;28;20033;-69
2022/02/13 10:53:03;;;;;;;30.02;8.93;;;-2.20;99.90;;;;;;5023408;28;20442;-69
2022/02/13 10:55:30;;;;;;;16.20;6.97;;;-2.20;99.90;;;;;;5026966;28;20057;-69
2022/02/13 10:57:58;;;;;;;14.50;6.80;;;-2.20;99.90;;;;;;5022519;28;20030;-69
2022/02/13 11:00:27;;;;;;;14.15;6.50;;;-2.10;99.90;;;;;;5027131;28;20014;-69
2022/02/13 11:02:54;;;;;;;14.85;6.80;;;-2.00;99.90;;;;;;5027050;28;20407;-69
2022/02/13 11:05:22;;;;;;;13.63;6.20;;;-2.00;99.90;;;;;;5021750;28;20049;-69
2022/02/13 11:07:49;;;;;;;14.77;5.85;;;-1.90;99.90;;;;;;5032744;28;20017;-69
2022/02/13 11:10:24;;;;;;;14.40;5.75;;;-1.90;99.90;;;;;;5032484;28;20091;-69
2022/02/13 11:12:53;;;;;;;12.20;5.28;;;-1.90;99.90;;;;;;5032732;28;20033;-69
2022/02/13 11:15:22;;;;;;;13.57;6.20;;;-1.90;99.90;;;;;;5031595;28;20032;-68
2022/02/13 11:17:50;;;;;;;15.75;5.50;;;-1.80;99.90;;;;;;5032641;28;20056;-69
2022/02/13 11:20:18;;;;;;;12.75;5.40;;;-1.80;99.90;;;;;;5032314;28;20061;-69
2022/02/13 11:22:47;;;;;;;10.00;4.95;;;-1.80;99.90;;;;;;5032346;28;20416;-68
2022/02/13 11:25:13;;;;;;;19.35;5.60;;;-1.70;99.90;;;;;;5032244;28;20491;-69
2022/02/13 11:27:59;;;;;;;12.63;4.90;;;-1.70;99.90;;;;;;5032153;28;20036;-69
2022/02/13 11:30:45;;;;;;;14.05;4.97;;;-1.60;99.90;;;;;;5032120;28;20033;-69
2022/02/13 11:33:22;;;;;;;13.50;4.70;;;-1.60;99.90;;;;;;5014527;28;20030;-68
2022/02/13 11:36:05;;;;;;;10.23;4.47;;;-1.50;99.90;;;;;;5032128;28;20034;-68
2022/02/13 11:38:37;;;;;;;14.90;5.53;;;-1.50;99.90;;;;;;5031863;28;20476;-68
2022/02/13 11:41:04;;;;;;;8.90;4.15;;;-1.50;99.90;;;;;;5032206;28;20032;-68
2022/02/13 11:43:47;;;;;;;11.32;4.47;;;-1.50;99.90;;;;;;5031941;28;20611;-68
2022/02/13 11:46:30;;;;;;;11.05;3.95;;;-1.50;99.90;;;;;;5032263;28;20090;-68
2022/02/13 11:49:02;;;;;;;15.93;4.47;;;-1.40;99.90;;;;;;5031917;28;20033;-68
2022/02/13 11:51:46;;;;;;;7.75;3.70;;;-1.40;99.90;;;;;;5014184;28;20053;-68
2022/02/13 11:54:37;;;;;;;11.38;4.10;;;-1.30;99.90;;;;;;5031913;28;20024;-68
2022/02/13 11:57:17;;;;;;;12.10;4.03;;;-1.30;99.90;;;;;;5031778;28;20022;-68
2022/02/13 11:59:56;;;;;;;11.47;4.20;;;-1.30;99.90;;;;;;5031883;28;20025;-68
2022/02/13 12:02:30;;;;;;;9.30;4.07;;;-1.40;99.90;;;;;;5014016;28;20291;-68
2022/02/13 12:05:17;;;;;;;12.45;4.07;;;-1.40;99.90;;;;;;5031785;28;20026;-68
2022/02/13 12:07:54;;;;;;;11.40;3.55;;;-1.40;99.90;;;;;;5031803;28;20481;-68
2022/02/13 12:10:27;;;;;;;9.77;3.63;;;-1.40;99.90;;;;;;5031551;28;20092;-68
2022/02/13 12:13:12;;;;;;;10.32;3.67;;;-1.50;99.90;;;;;;5031763;28;20476;-68
2022/02/13 12:15:39;;;;;;;11.10;3.25;;;-1.50;99.90;;;;;;5031671;28;20033;-69
2022/02/13 12:18:13;;;;;;;6.35;3.63;;;-1.40;99.90;;;;;;5034258;28;20025;-67
2022/02/13 12:20:42;;;;;;;7.50;3.63;;;-1.50;99.90;;;;;;5035304;28;20514;-67
2022/02/13 12:23:13;;;;;;;14.50;5.47;;;-1.40;99.90;;;;;;5035857;28;20056;-68
2022/02/13 12:25:42;;;;;;;7.32;3.28;;;-1.20;99.90;;;;;;5035641;28;20032;-68
2022/02/13 12:28:10;;;;;;;7.60;3.40;;;0.60;99.90;;;;;;5035748;28;20017;-68
2022/02/13 12:30:37;;;;;;;8.40;3.38;;;0.50;99.90;;;;;;5035448;28;20048;-68
2022/02/13 12:33:05;;;;;;;9.98;3.33;;;0.20;99.90;;;;;;5035625;28;20076;-68
2022/02/13 12:35:36;;;;;;;11.25;3.38;;;-0.20;99.90;;;;;;5035624;28;20095;-68
2022/02/13 12:38:03;;;;;;;11.88;3.28;;;-0.40;99.90;;;;;;5035383;28;20050;-68
2022/02/13 12:40:37;;;;;;;7.80;3.40;;;-0.50;99.90;;;;;;5035375;28;20057;-68
2022/02/13 12:43:15;;;;;;;8.63;3.30;;;-0.50;99.90;;;;;;5018193;28;20017;-68
2022/02/13 12:45:42;;;;;;;7.25;3.15;;;-0.50;99.90;;;;;;5035289;28;20029;-68
2022/02/13 12:48:16;;;;;;;8.00;2.92;;;-0.50;99.90;;;;;;5035427;28;20029;-68
2022/02/13 12:50:46;;;;;;;8.75;3.72;;;-0.50;99.90;;;;;;5017423;28;20030;-68
2022/02/13 12:53:14;;;;;;;8.13;3.28;;;-0.50;99.90;;;;;;5035442;28;20151;-68
2022/02/13 12:55:42;;;;;;;11.88;3.42;;;-0.50;99.90;;;;;;5034944;28;20033;-68
2022/02/13 12:58:09;;;;;;;9.82;3.33;;;-0.40;99.90;;;;;;5035111;28;20026;-68
2022/02/13 13:00:42;;;;;;;8.65;3.55;;;-0.40;99.90;;;;;;5035141;28;20083;-68
2022/02/13 13:03:10;;;;;;;7.35;3.33;;;-0.40;99.90;;;;;;5035343;28;20022;-68
2022/02/13 13:05:39;;;;;;;8.77;3.53;;;-0.40;99.90;;;;;;5034790;28;20484;-68
2022/02/13 13:08:08;;;;;;;9.60;3.95;;;-0.40;99.90;;;;;;5034987;28;20409;-68
2022/02/13 13:10:34;;;;;;;8.80;3.97;;;-0.40;99.90;;;;;;5034671;28;20116;-68
2022/02/13 13:13:01;;;;;;;6.95;3.83;;;-0.40;99.90;;;;;;5034904;28;20029;-68
2022/02/13 13:15:27;;;;;;;10.73;3.78;;;-0.40;99.90;;;;;;5016852;28;20076;-68
2022/02/13 13:17:52;;;;;;;9.57;4.00;;;-0.40;99.90;;;;;;5034758;28;20029;-68
2022/02/13 13:20:23;;;;;;;9.60;3.85;;;-0.40;99.90;;;;;;5034865;28;20032;-67
2022/02/13 13:23:13;;;;;;;13.40;4.68;;;0.00;99.90;;;;;;5035198;28;20450;-68
2022/02/13 13:25:47;;;;;;;7.35;4.05;;;0.10;99.90;;;;;;5034493;28;20504;-68
2022/02/13 13:28:15;;;;;;;9.50;4.35;;;0.00;99.90;;;;;;5033440;28;20037;-68
2022/02/13 13:30:45;;;;;;;9.55;5.05;;;-0.10;99.90;;;;;;5033742;28;20405;-68
2022/02/13 13:33:14;;;;;;;12.20;4.93;;;-0.10;99.90;;;;;;5034763;28;20029;-69
2022/02/13 13:35:41;;;;;;;7.68;4.47;;;-0.20;99.90;;;;;;5034244;28;20384;-69
2022/02/13 13:38:09;;;;;;;7.95;4.32;;;-0.20;99.90;;;;;;5034231;28;20049;-69
2022/02/13 13:40:39;;;;;;;9.90;4.47;;;-0.20;99.90;;;;;;5016313;28;20436;-69
2022/02/13 13:43:10;;;;;;;11.73;4.93;;;-0.20;99.90;;;;;;5031115;28;20026;-69
2022/02/13 13:45:40;;;;;;;13.40;5.30;;;-0.20;99.90;;;;;;5034313;28;20087;-69
2022/02/13 13:48:17;;;;;;;11.67;5.13;;;-0.20;99.90;;;;;;5034573;28;20017;-69
2022/02/13 13:50:45;;;;;;;11.70;5.10;;;-0.20;99.90;;;;;;5033954;28;20033;-70